Cummaquid, Massachusetts
Current Conditions -  °F | °C
As of 12:03 PM on Friday 24 Oct 2014 (Local Time) from KHYA Reporting Station
Overcast Overcast  
Wind Chill: 53°   Ceiling: 1400
Heat Index: 53°   Visibility: 9mi
Dew Point: 49°   Wind: 13mph
Humidity: 86%   Direction: 340°NNW
Pressure: 29.66"   Gusts: 22mph
Location:  41.7°N, 70.27°W
Report Text: KHYA 241603Z 34011G19KT 9SM BKN014 OVC021 12/09 A2966 RMK AO2 RAE1558 P0000 T01170094
Loading
Personal Weather Stations






























Interactive Weather Map
Tropical Storm Tracking
New forecast layout! Learn more

10-Day Weather Forecast

Advertisements
Track Severe Weather on mobile